createdAt,value
2023-06-24T00:02:08.811Z,53.50
2023-06-24T00:04:37.370Z,53.81
2023-06-24T00:07:05.940Z,53.81
2023-06-24T00:09:34.692Z,53.64
2023-06-24T00:12:06.106Z,53.83
2023-06-24T00:14:34.465Z,53.81
2023-06-24T00:17:03.069Z,54.09
2023-06-24T00:19:32.641Z,53.80
2023-06-24T00:22:04.628Z,53.87
2023-06-24T00:24:32.985Z,54.00
2023-06-24T00:27:01.306Z,54.34
2023-06-24T00:29:31.026Z,54.48
2023-06-24T00:31:59.406Z,54.15
2023-06-24T00:34:27.721Z,53.97
2023-06-24T00:36:56.459Z,54.09
2023-06-24T00:39:24.804Z,54.12
2023-06-24T00:41:53.201Z,54.59
2023-06-24T00:44:22.069Z,54.28
2023-06-24T00:46:51.780Z,54.35
2023-06-24T00:49:20.149Z,54.31
2023-06-24T00:51:51.469Z,54.44
2023-06-24T00:54:20.358Z,54.54
2023-06-24T00:56:49.113Z,54.25
2023-06-24T00:59:18.939Z,54.52
2023-06-24T01:01:54.102Z,54.45
2023-06-24T01:04:22.544Z,54.49
2023-06-24T01:06:51.726Z,54.70
2023-06-24T01:09:24.858Z,55.17
2023-06-24T01:11:53.227Z,55.14
2023-06-24T01:14:24.045Z,54.87
2023-06-24T01:17:01.640Z,54.79
2023-06-24T01:19:58.526Z,54.74
2023-06-24T01:23:28.839Z,55.06
2023-06-24T01:26:35.707Z,54.70
2023-06-24T01:29:51.658Z,54.80
2023-06-24T01:32:30.344Z,54.58
2023-06-24T01:35:03.111Z,54.81
2023-06-24T01:37:38.941Z,55.06
2023-06-24T01:40:14.809Z,54.79
2023-06-24T01:42:45.498Z,55.30
2023-06-24T01:45:18.896Z,54.97
2023-06-24T01:47:51.189Z,55.02
2023-06-24T01:50:24.394Z,54.93
2023-06-24T01:52:55.530Z,55.14
2023-06-24T01:55:25.907Z,55.39
2023-06-24T01:57:54.904Z,55.04
2023-06-24T02:00:28.113Z,55.11
2023-06-24T02:02:59.226Z,55.42
2023-06-24T02:05:28.721Z,55.17
2023-06-24T02:08:02.329Z,55.27
2023-06-24T02:10:32.899Z,55.34
2023-06-24T02:13:03.661Z,55.24
2023-06-24T02:15:35.847Z,55.37
2023-06-24T02:18:07.400Z,55.29
2023-06-24T02:20:36.494Z,55.11
2023-06-24T02:23:06.203Z,55.25
2023-06-24T02:25:35.470Z,55.42
2023-06-24T02:28:04.263Z,55.42
2023-06-24T02:30:33.080Z,55.35
2023-06-24T02:33:01.555Z,54.99
2023-06-24T02:35:31.541Z,55.46
2023-06-24T02:37:59.935Z,55.49
2023-06-24T02:40:29.258Z,55.06
2023-06-24T02:42:58.798Z,55.39
2023-06-24T02:45:27.786Z,55.08
2023-06-24T02:47:58.037Z,55.46
2023-06-24T02:50:27.862Z,55.21
2023-06-24T02:53:00.975Z,55.10
2023-06-24T02:55:30.100Z,54.85
2023-06-24T02:57:59.250Z,54.79
2023-06-24T03:00:32.302Z,55.10
2023-06-24T03:03:01.322Z,55.38
2023-06-24T03:05:34.082Z,55.17
2023-06-24T03:08:05.123Z,55.05
2023-06-24T03:10:38.408Z,55.35
2023-06-24T03:13:06.775Z,55.09
2023-06-24T03:15:35.363Z,55.49
2023-06-24T03:18:03.831Z,55.35
2023-06-24T03:20:41.677Z,55.28
2023-06-24T03:23:11.769Z,55.13
2023-06-24T03:25:40.157Z,55.04
2023-06-24T03:28:08.821Z,55.22
2023-06-24T03:30:37.338Z,54.99
2023-06-24T03:33:06.989Z,55.32
2023-06-24T03:35:35.570Z,55.08
2023-06-24T03:38:04.251Z,55.26
2023-06-24T03:40:39.498Z,55.39
2023-06-24T03:43:10.550Z,54.92
2023-06-24T03:45:39.009Z,55.03
2023-06-24T03:48:08.171Z,55.33
2023-06-24T03:50:39.384Z,55.37
2023-06-24T03:53:08.825Z,55.33
2023-06-24T03:55:38.545Z,55.09
2023-06-24T03:58:06.849Z,55.36
2023-06-24T04:00:35.195Z,55.35
2023-06-24T04:03:03.570Z,55.42
2023-06-24T04:05:35.048Z,55.38
2023-06-24T04:08:06.886Z,55.14
2023-06-24T04:10:35.162Z,55.40
2023-06-24T04:13:04.859Z,55.20
2023-06-24T04:15:33.335Z,55.20
2023-06-24T04:18:01.886Z,55.32
2023-06-24T04:20:33.037Z,54.98
2023-06-24T04:23:02.205Z,55.07
2023-06-24T04:25:30.479Z,55.62
2023-06-24T04:27:58.824Z,55.26
2023-06-24T04:30:28.492Z,55.52
2023-06-24T04:32:56.885Z,55.36
2023-06-24T04:35:26.174Z,55.82
2023-06-24T04:37:54.536Z,55.76
2023-06-24T04:40:22.833Z,56.13
2023-06-24T04:42:51.336Z,56.19
2023-06-24T04:45:19.667Z,56.21
2023-06-24T04:47:49.472Z,55.93
2023-06-24T04:50:17.873Z,55.90
2023-06-24T04:52:48.030Z,55.98
2023-06-24T04:55:19.164Z,56.15
2023-06-24T04:57:47.500Z,56.33
2023-06-24T05:00:16.853Z,56.00
2023-06-24T05:02:45.276Z,55.97
2023-06-24T05:05:15.042Z,56.05
2023-06-24T05:07:43.454Z,56.03
2023-06-24T05:10:11.851Z,56.11
2023-06-24T05:12:40.171Z,55.95
2023-06-24T05:15:10.541Z,56.06
2023-06-24T05:17:39.180Z,55.72
2023-06-24T05:20:09.226Z,56.00
2023-06-24T05:22:39.071Z,56.21
2023-06-24T05:25:08.640Z,55.84
2023-06-24T05:27:39.862Z,56.31
2023-06-24T05:30:10.109Z,56.15
2023-06-24T05:32:38.445Z,55.57
2023-06-24T05:35:08.201Z,55.64
2023-06-24T05:37:37.890Z,55.28
2023-06-24T05:40:08.690Z,55.52
2023-06-24T05:42:37.052Z,55.89
2023-06-24T05:45:07.258Z,55.31
2023-06-24T05:47:35.651Z,55.84
2023-06-24T05:50:04.088Z,55.70
2023-06-24T05:52:32.377Z,55.66
2023-06-24T05:55:02.065Z,55.27
2023-06-24T05:57:33.165Z,55.58
2023-06-24T06:00:01.607Z,55.57
2023-06-24T06:02:29.991Z,55.14
2023-06-24T06:05:03.975Z,54.69
2023-06-24T06:07:32.303Z,54.79
2023-06-24T06:10:02.029Z,54.62
2023-06-24T06:12:30.311Z,55.03
2023-06-24T06:14:58.627Z,54.80
2023-06-24T06:17:26.976Z,54.41
2023-06-24T06:19:55.384Z,54.44
2023-06-24T06:22:23.721Z,54.61
2023-06-24T06:24:52.091Z,54.51
2023-06-24T06:27:21.761Z,54.74
2023-06-24T06:29:50.065Z,54.23
2023-06-24T06:32:18.379Z,54.24
2023-06-24T06:34:52.942Z,54.16
2023-06-24T06:37:21.305Z,53.78
2023-06-24T06:39:49.626Z,53.73
2023-06-24T06:42:53.734Z,53.87
2023-06-24T06:45:24.699Z,53.53
2023-06-24T06:47:53.290Z,54.45
2023-06-24T06:50:21.827Z,54.47
2023-06-24T06:52:50.192Z,54.49
2023-06-24T06:55:21.195Z,53.88
2023-06-24T06:57:49.825Z,53.94
2023-06-24T07:00:22.648Z,53.88
2023-06-24T07:02:51.109Z,53.39
2023-06-24T07:05:25.076Z,53.07
2023-06-24T07:07:54.869Z,52.91
2023-06-24T07:10:23.434Z,52.01
2023-06-24T07:12:52.272Z,52.19
2023-06-24T07:15:22.054Z,51.66
2023-06-24T07:17:50.437Z,51.81
2023-06-24T07:20:18.804Z,51.95
2023-06-24T07:22:47.083Z,51.63
2023-06-24T07:25:15.631Z,50.89
2023-06-24T07:27:43.950Z,50.55
2023-06-24T07:30:12.929Z,50.42
2023-06-24T07:32:42.661Z,50.75
2023-06-24T07:35:11.558Z,50.78
2023-06-24T07:37:39.925Z,50.43
2023-06-24T07:40:10.375Z,49.08
2023-06-24T07:42:38.787Z,48.25
2023-06-24T07:45:08.589Z,47.86
2023-06-24T07:47:37.035Z,47.07
2023-06-24T07:50:12.008Z,47.82
2023-06-24T07:52:40.638Z,47.76
2023-06-24T07:55:09.997Z,47.67
2023-06-24T07:57:38.368Z,47.30
2023-06-24T08:00:11.144Z,46.66
2023-06-24T08:02:39.529Z,46.12
2023-06-24T08:05:11.079Z,45.74
2023-06-24T08:07:40.500Z,45.72
2023-06-24T08:10:12.545Z,45.28
2023-06-24T08:12:40.839Z,45.10
2023-06-24T08:15:10.406Z,44.96
2023-06-24T08:17:39.032Z,45.22
2023-06-24T08:20:13.639Z,45.64
2023-06-24T08:22:41.966Z,45.84
2023-06-24T08:25:10.845Z,45.01
2023-06-24T08:27:39.770Z,44.23
2023-06-24T08:30:15.253Z,44.18
2023-06-24T08:32:43.719Z,44.08
2023-06-24T08:35:13.775Z,43.40
2023-06-24T08:37:42.771Z,43.41
2023-06-24T08:40:12.164Z,43.16
2023-06-24T08:42:40.479Z,43.60
2023-06-24T08:45:12.722Z,43.94
2023-06-24T08:47:43.161Z,43.05
2023-06-24T08:50:15.015Z,43.24
2023-06-24T08:52:47.933Z,43.43
2023-06-24T08:55:28.232Z,41.98
2023-06-24T08:57:56.633Z,41.87
2023-06-24T09:00:25.557Z,42.46
2023-06-24T09:02:53.903Z,41.57
2023-06-24T09:05:23.677Z,40.80
2023-06-24T09:07:52.042Z,41.61
2023-06-24T09:10:37.010Z,41.83
2023-06-24T09:13:07.618Z,41.81
2023-06-24T09:15:37.179Z,41.48
2023-06-24T09:18:06.762Z,40.58
2023-06-24T09:20:45.784Z,40.70
2023-06-24T09:23:14.343Z,39.35
2023-06-24T09:25:45.051Z,39.60
2023-06-24T09:28:16.053Z,38.85
2023-06-24T09:30:53.763Z,38.77
2023-06-24T09:33:24.963Z,38.33
2023-06-24T09:35:55.143Z,39.37
2023-06-24T09:38:35.834Z,38.27
2023-06-24T09:41:16.268Z,38.00
2023-06-24T09:43:46.247Z,38.36
2023-06-24T09:46:15.100Z,37.39
2023-06-24T09:48:43.446Z,37.39
2023-06-24T09:51:15.680Z,36.69
2023-06-24T09:53:45.795Z,36.82
2023-06-24T09:56:16.500Z,37.17
2023-06-24T09:58:46.921Z,36.72
2023-06-24T10:01:17.637Z,36.45
2023-06-24T10:03:46.476Z,35.90
2023-06-24T10:06:16.518Z,36.07
2023-06-24T10:08:47.896Z,37.12
2023-06-24T10:11:16.270Z,36.63
2023-06-24T10:13:44.738Z,35.13
2023-06-24T10:16:13.314Z,34.87
2023-06-24T10:18:42.434Z,34.60
2023-06-24T10:21:11.736Z,33.61
2023-06-24T10:23:54.254Z,34.43
2023-06-24T10:26:29.487Z,32.78
2023-06-24T10:29:18.583Z,32.27
2023-06-24T10:31:56.972Z,33.08
2023-06-24T10:34:33.727Z,32.60
2023-06-24T10:37:04.324Z,32.56
2023-06-24T10:39:51.466Z,33.46
2023-06-24T10:42:44.910Z,33.83
2023-06-24T10:45:19.878Z,33.40
2023-06-24T10:47:50.529Z,33.94
2023-06-24T10:50:22.476Z,33.45
2023-06-24T10:52:56.218Z,32.93
2023-06-24T10:55:27.467Z,32.79
2023-06-24T10:57:56.244Z,32.93
2023-06-24T11:00:24.644Z,31.63
2023-06-24T11:02:53.064Z,32.58
2023-06-24T11:05:21.467Z,31.61
2023-06-24T11:07:49.812Z,31.40
2023-06-24T11:10:18.632Z,31.41
2023-06-24T11:12:48.836Z,30.90
2023-06-24T11:15:17.255Z,31.53
2023-06-24T11:17:45.761Z,32.28
2023-06-24T11:20:16.013Z,31.34
2023-06-24T11:22:45.864Z,31.13
2023-06-24T11:25:18.801Z,31.07
2023-06-24T11:27:48.866Z,30.75
2023-06-24T11:30:18.856Z,31.05
2023-06-24T11:32:49.029Z,29.52
2023-06-24T11:35:18.219Z,29.35
2023-06-24T11:37:49.183Z,29.62
2023-06-24T11:40:21.463Z,29.29
2023-06-24T11:42:52.177Z,28.28
2023-06-24T11:45:24.073Z,28.56
2023-06-24T11:47:53.453Z,28.63
2023-06-24T11:50:29.129Z,29.44
2023-06-24T11:52:57.598Z,30.39
2023-06-24T11:55:29.865Z,29.85
2023-06-24T11:58:02.646Z,29.85
2023-06-24T12:00:34.033Z,28.15
2023-06-24T12:03:05.864Z,27.94
2023-06-24T12:05:37.841Z,29.74
2023-06-24T12:08:10.134Z,29.58
2023-06-24T12:10:40.591Z,29.07
2023-06-24T12:13:10.657Z,27.61
2023-06-24T12:15:39.427Z,26.96
2023-06-24T12:18:07.885Z,26.66
2023-06-24T12:20:38.967Z,25.88
2023-06-24T12:23:08.255Z,26.16
2023-06-24T12:25:36.660Z,26.37
2023-06-24T12:28:05.182Z,26.95
2023-06-24T12:30:35.243Z,26.94
2023-06-24T12:33:04.242Z,26.76
2023-06-24T12:35:35.593Z,26.84
2023-06-24T12:38:03.990Z,27.57
2023-06-24T12:40:32.365Z,27.82
2023-06-24T12:43:01.051Z,27.41
2023-06-24T12:45:29.393Z,28.62
2023-06-24T12:48:00.417Z,28.18
2023-06-24T12:50:28.889Z,29.53
2023-06-24T12:52:57.315Z,27.94
2023-06-24T12:55:25.719Z,27.39
2023-06-24T12:57:54.109Z,28.03
2023-06-24T13:00:23.614Z,27.84
2023-06-24T13:02:52.779Z,27.04
2023-06-24T13:05:23.328Z,28.37
2023-06-24T13:07:51.868Z,26.56
2023-06-24T13:10:20.655Z,27.31
2023-06-24T13:12:51.362Z,27.19
2023-06-24T13:15:21.017Z,26.75
2023-06-24T13:17:49.430Z,25.86
2023-06-24T13:20:18.088Z,25.84
2023-06-24T13:22:47.882Z,25.98
2023-06-24T13:25:17.013Z,25.89
2023-06-24T13:27:46.295Z,26.38
2023-06-24T13:30:22.922Z,27.09
2023-06-24T13:32:51.421Z,28.62
2023-06-24T13:35:19.878Z,27.65
2023-06-24T13:37:49.735Z,27.17
2023-06-24T13:40:18.331Z,26.92
2023-06-24T13:42:46.702Z,27.48
2023-06-24T13:45:15.050Z,28.18
2023-06-24T13:47:54.432Z,26.79
2023-06-24T13:50:22.915Z,26.78
2023-06-24T13:52:52.702Z,27.01
2023-06-24T13:55:21.034Z,26.91
2023-06-24T13:57:49.478Z,27.74
2023-06-24T14:00:19.120Z,28.76
2023-06-24T14:02:47.604Z,27.63
2023-06-24T14:05:16.090Z,27.79
2023-06-24T14:07:44.608Z,27.02
2023-06-24T14:10:14.513Z,28.46
2023-06-24T14:12:43.756Z,27.95
2023-06-24T14:15:12.896Z,28.10
2023-06-24T14:17:41.176Z,28.47
2023-06-24T14:20:11.521Z,27.45
2023-06-24T14:22:39.912Z,26.86
2023-06-24T14:25:17.921Z,26.47
2023-06-24T14:27:46.913Z,26.40
2023-06-24T14:30:15.558Z,25.08
2023-06-24T14:32:43.941Z,25.73
2023-06-24T14:35:12.363Z,25.74
2023-06-24T14:37:40.688Z,26.57
2023-06-24T14:40:18.171Z,27.21
2023-06-24T14:42:46.460Z,26.70
2023-06-24T14:45:14.991Z,25.63
2023-06-24T14:47:43.417Z,25.61
2023-06-24T14:50:17.228Z,25.16
2023-06-24T14:52:45.721Z,26.16
2023-06-24T14:55:14.169Z,26.29
2023-06-24T14:57:43.892Z,25.74
2023-06-24T15:00:14.543Z,25.64
2023-06-24T15:02:43.044Z,25.27
2023-06-24T15:05:11.566Z,26.53
2023-06-24T15:07:39.966Z,25.64
2023-06-24T15:10:09.693Z,24.61
2023-06-24T15:12:38.780Z,24.37
2023-06-24T15:15:09.657Z,24.20
2023-06-24T15:17:41.269Z,24.32
2023-06-24T15:20:17.081Z,24.76
2023-06-24T15:22:45.445Z,24.60
2023-06-24T15:25:14.410Z,24.66
2023-06-24T15:27:42.818Z,23.95
2023-06-24T15:30:14.264Z,25.06
2023-06-24T15:32:43.780Z,24.82
2023-06-24T15:35:12.266Z,24.96
2023-06-24T15:37:40.643Z,26.35
2023-06-24T15:40:13.024Z,26.56
2023-06-24T15:42:41.484Z,26.25
2023-06-24T15:45:12.268Z,25.07
2023-06-24T15:47:40.636Z,24.86
2023-06-24T15:50:10.840Z,24.20
2023-06-24T15:52:39.879Z,23.65
2023-06-24T15:55:10.705Z,24.45
2023-06-24T15:57:39.142Z,23.99
2023-06-24T16:00:11.548Z,24.52
2023-06-24T16:02:41.446Z,25.14
2023-06-24T16:05:10.620Z,24.40
2023-06-24T16:07:39.040Z,24.10
2023-06-24T16:10:10.943Z,24.08
2023-06-24T16:12:39.355Z,23.85
2023-06-24T16:15:09.492Z,23.67
2023-06-24T16:17:41.814Z,24.23
2023-06-24T16:20:15.587Z,24.20
2023-06-24T16:22:44.108Z,23.92
2023-06-24T16:25:12.983Z,24.14
2023-06-24T16:27:41.698Z,23.98
2023-06-24T16:30:10.917Z,23.54
2023-06-24T16:32:39.313Z,23.18
2023-06-24T16:35:09.597Z,23.49
2023-06-24T16:37:42.425Z,23.60
2023-06-24T16:40:11.752Z,23.32
2023-06-24T16:42:40.087Z,23.18
2023-06-24T16:45:12.521Z,23.65
2023-06-24T16:47:41.019Z,23.71
2023-06-24T16:50:11.183Z,24.19
2023-06-24T16:52:41.000Z,24.07
2023-06-24T16:55:14.500Z,24.29
2023-06-24T16:57:43.451Z,24.70
2023-06-24T17:00:13.450Z,25.63
2023-06-24T17:02:42.608Z,25.02
2023-06-24T17:05:11.350Z,24.28
2023-06-24T17:07:41.086Z,24.14
2023-06-24T17:10:10.123Z,23.68
2023-06-24T17:12:39.780Z,24.73
2023-06-24T17:15:11.364Z,25.26
2023-06-24T17:17:39.826Z,25.79
2023-06-24T17:20:10.418Z,26.02
2023-06-24T17:22:40.168Z,26.19
2023-06-24T17:25:09.671Z,26.10
2023-06-24T17:27:38.041Z,26.29
2023-06-24T17:30:10.828Z,26.12
2023-06-24T17:32:39.271Z,25.88
2023-06-24T17:35:08.872Z,26.81
2023-06-24T17:37:37.252Z,27.72
2023-06-24T17:40:09.233Z,28.26
2023-06-24T17:42:37.760Z,28.58
2023-06-24T17:45:07.828Z,28.11
2023-06-24T17:47:36.331Z,27.96
2023-06-24T17:50:05.467Z,27.63
2023-06-24T17:52:33.874Z,28.65
2023-06-24T17:55:03.014Z,27.87
2023-06-24T17:57:32.901Z,28.22
2023-06-24T18:00:01.297Z,28.56
2023-06-24T18:02:32.174Z,28.92
2023-06-24T18:05:05.317Z,28.45
2023-06-24T18:07:33.966Z,28.71
2023-06-24T18:10:02.590Z,29.75
2023-06-24T18:12:32.446Z,29.34
2023-06-24T18:15:06.467Z,29.90
2023-06-24T18:17:34.907Z,29.65
2023-06-24T18:20:06.470Z,29.64
2023-06-24T18:22:34.808Z,29.87
2023-06-24T18:25:03.969Z,29.98
2023-06-24T18:27:33.824Z,30.00
2023-06-24T18:30:07.331Z,30.17
2023-06-24T18:32:35.722Z,28.78
2023-06-24T18:35:04.305Z,30.33
2023-06-24T18:37:32.948Z,29.54
2023-06-24T18:40:03.535Z,29.74
2023-06-24T18:42:33.344Z,30.12
2023-06-24T18:45:04.600Z,29.95
2023-06-24T18:47:33.052Z,30.11
2023-06-24T18:50:05.360Z,30.00
2023-06-24T18:52:33.720Z,29.74
2023-06-24T18:55:05.029Z,29.64
2023-06-24T18:57:34.817Z,29.22
2023-06-24T19:00:06.288Z,29.46
2023-06-24T19:02:34.848Z,30.04
2023-06-24T19:05:03.307Z,30.06
2023-06-24T19:07:31.933Z,30.35
2023-06-24T19:10:01.891Z,30.74
2023-06-24T19:12:34.031Z,31.19
2023-06-24T19:15:02.421Z,31.79
2023-06-24T19:17:31.039Z,31.57
2023-06-24T19:19:59.440Z,31.31
2023-06-24T19:22:27.777Z,31.46
2023-06-24T19:24:56.197Z,31.60
2023-06-24T19:27:25.061Z,31.89
2023-06-24T19:29:54.864Z,31.83
2023-06-24T19:32:23.395Z,31.98
2023-06-24T19:34:51.897Z,32.54
2023-06-24T19:37:20.313Z,32.35
2023-06-24T19:39:48.716Z,32.64
2023-06-24T19:42:17.064Z,32.93
2023-06-24T19:44:45.568Z,33.58
2023-06-24T19:47:17.884Z,34.21
2023-06-24T19:49:52.716Z,34.00
2023-06-24T19:52:21.498Z,34.76
2023-06-24T19:54:50.901Z,34.16
2023-06-24T19:57:21.064Z,33.88
2023-06-24T19:59:49.636Z,33.46
2023-06-24T20:02:19.484Z,33.22
2023-06-24T20:04:48.163Z,33.40
2023-06-24T20:07:17.400Z,33.33
2023-06-24T20:09:46.075Z,33.79
2023-06-24T20:12:14.553Z,33.46
2023-06-24T20:14:42.962Z,33.55
2023-06-24T20:17:11.354Z,33.36
2023-06-24T20:19:41.199Z,33.73
2023-06-24T20:22:09.966Z,34.28
2023-06-24T20:24:38.363Z,34.87
2023-06-24T20:27:07.322Z,35.20
2023-06-24T20:29:35.632Z,35.05
2023-06-24T20:32:03.991Z,35.53
2023-06-24T20:34:32.341Z,35.43
2023-06-24T20:37:02.118Z,35.21
2023-06-24T20:39:30.386Z,35.41
2023-06-24T20:41:59.261Z,35.25
2023-06-24T20:44:27.650Z,35.33
2023-06-24T20:46:56.101Z,35.31
2023-06-24T20:49:24.453Z,35.74
2023-06-24T20:51:52.744Z,35.74
2023-06-24T20:54:22.692Z,35.68
2023-06-24T20:56:51.861Z,35.75
2023-06-24T20:59:20.147Z,35.99
2023-06-24T21:01:48.528Z,36.29
2023-06-24T21:04:17.297Z,36.83
2023-06-24T21:06:45.808Z,36.69
2023-06-24T21:09:14.382Z,36.81
2023-06-24T21:11:44.117Z,36.99
2023-06-24T21:14:12.444Z,36.49
2023-06-24T21:16:40.852Z,36.64
2023-06-24T21:19:09.667Z,36.83
2023-06-24T21:21:38.051Z,37.24
2023-06-24T21:24:08.473Z,37.02
2023-06-24T21:26:36.817Z,37.33
2023-06-24T21:29:06.516Z,37.54
2023-06-24T21:31:34.901Z,38.04
2023-06-24T21:34:03.310Z,38.05
2023-06-24T21:36:31.648Z,38.28
2023-06-24T21:38:59.946Z,38.64
2023-06-24T21:41:28.441Z,38.61
2023-06-24T21:43:57.624Z,38.55
2023-06-24T21:46:27.454Z,38.59
2023-06-24T21:48:55.854Z,38.28
2023-06-24T21:51:24.195Z,38.31
2023-06-24T21:53:52.509Z,38.37
2023-06-24T21:56:20.876Z,38.74
2023-06-24T21:58:49.211Z,38.73
2023-06-24T22:01:18.070Z,39.14
2023-06-24T22:03:47.791Z,39.24
2023-06-24T22:06:16.210Z,39.14
2023-06-24T22:08:44.598Z,39.35
2023-06-24T22:11:12.982Z,39.48
2023-06-24T22:13:41.369Z,39.40
2023-06-24T22:16:11.762Z,39.78
2023-06-24T22:18:40.188Z,39.82
2023-06-24T22:21:09.919Z,40.18
2023-06-24T22:23:38.303Z,40.13
2023-06-24T22:26:06.730Z,40.17
2023-06-24T22:28:35.054Z,40.14
2023-06-24T22:31:03.596Z,40.39
2023-06-24T22:33:32.131Z,40.36
2023-06-24T22:36:00.551Z,40.32
2023-06-24T22:38:30.263Z,40.55
2023-06-24T22:40:58.681Z,40.79
2023-06-24T22:43:28.114Z,40.63
2023-06-24T22:45:56.566Z,40.76
2023-06-24T22:48:24.960Z,40.66
2023-06-24T22:50:53.392Z,41.05
2023-06-24T22:53:21.787Z,40.77
2023-06-24T22:55:51.533Z,41.40
2023-06-24T22:58:19.938Z,41.25
2023-06-24T23:00:48.261Z,41.10
2023-06-24T23:03:17.588Z,41.60
2023-06-24T23:05:46.724Z,41.47
2023-06-24T23:08:15.785Z,42.02
2023-06-24T23:10:44.935Z,41.96
2023-06-24T23:13:15.217Z,42.02
2023-06-24T23:15:44.885Z,41.88
2023-06-24T23:18:13.694Z,41.89
2023-06-24T23:20:43.665Z,42.04
2023-06-24T23:23:14.775Z,42.45
2023-06-24T23:25:43.770Z,42.44
2023-06-24T23:28:17.235Z,42.35
2023-06-24T23:30:47.513Z,42.45
2023-06-24T23:33:18.253Z,42.32
2023-06-24T23:35:49.911Z,42.46
2023-06-24T23:38:20.764Z,42.55
2023-06-24T23:40:50.143Z,42.55
2023-06-24T23:43:21.617Z,42.88
2023-06-24T23:45:52.454Z,42.89
2023-06-24T23:48:21.204Z,43.17
2023-06-24T23:50:49.546Z,43.24
2023-06-24T23:53:17.983Z,43.26
2023-06-24T23:55:46.344Z,43.47
2023-06-24T23:58:14.704Z,43.79
